Time;durP1;ratioP1;P1;durP2;ratioP2;P2;SDS_P1;SDS_P2;PMS_P1;PMS_P2;Temp;Humidity;BMP_temperature;BMP_pressure;BME280_temperature;BME280_humidity;BME280_pressure;Samples;Min_cycle;Max_cycle;Signal;HPM_P1;HPM_P2
2021/10/28 00:14:24;;;;;;;17.67;9.73;;;;;;;8.35;90.03;101641.09;5032409;28;20072;-67
2021/10/28 00:16:51;;;;;;;18.25;10.57;;;;;;;8.34;89.31;101635.06;5032344;28;20072;-67
2021/10/28 00:19:18;;;;;;;17.98;10.27;;;;;;;8.26;88.84;101642.31;5031245;28;20037;-67
2021/10/28 00:21:44;;;;;;;17.63;12.52;;;;;;;7.81;89.43;101553.63;5031798;28;20041;-67
2021/10/28 00:24:11;;;;;;;20.23;11.85;;;;;;;8.28;88.38;101638.94;5032088;28;20087;-67
2021/10/28 00:26:42;;;;;;;18.10;12.30;;;;;;;8.22;87.97;101635.19;5032216;28;20160;-67
2021/10/28 00:29:10;;;;;;;21.80;12.68;;;;;;;8.19;88.54;101621.22;5013916;28;20045;-67
2021/10/28 00:31:38;;;;;;;20.10;13.43;;;;;;;8.28;88.61;101619.25;5030628;28;20457;-66
2021/10/28 00:34:05;;;;;;;18.58;13.63;;;;;;;8.38;89.08;101625.88;5031877;28;20029;-67
2021/10/28 00:36:31;;;;;;;17.77;13.05;;;;;;;8.38;87.22;101634.47;5032185;28;20516;-67
2021/10/28 00:38:56;;;;;;;17.67;13.15;;;;;;;8.21;87.56;101624.78;5032312;28;20159;-67
2021/10/28 00:41:24;;;;;;;17.17;13.27;;;;;;;8.15;88.03;101622.72;5032041;28;20122;-67
2021/10/28 00:43:54;;;;;;;19.58;9.65;;;;;;;8.15;89.61;101622.72;5032041;28;20030;-66
2021/10/28 00:46:20;;;;;;;20.35;9.30;;;;;;;8.13;91.07;101625.97;5031887;28;20088;-67
2021/10/28 00:48:47;;;;;;;19.65;9.07;;;;;;;7.96;90.83;101618.00;5032163;28;20029;-67
2021/10/28 00:51:14;;;;;;;15.27;9.10;;;;;;;7.65;92.18;101616.00;5031850;28;20032;-67
2021/10/28 00:53:41;;;;;;;17.45;9.25;;;;;;;7.69;91.20;101607.69;5030569;28;20099;-67
2021/10/28 00:56:06;;;;;;;14.35;9.13;;;;;;;7.66;90.22;101604.91;5031515;28;20114;-66
2021/10/28 00:58:34;;;;;;;14.40;8.80;;;;;;;7.54;90.83;101615.28;5031550;28;20072;-67
2021/10/28 01:01:01;;;;;;;12.45;7.75;;;;;;;7.28;90.52;101587.81;5031461;28;20026;-67
2021/10/28 01:03:27;;;;;;;18.63;8.82;;;;;;;7.39;91.88;101609.97;5029501;28;20030;-66
2021/10/28 01:05:53;;;;;;;13.13;7.72;;;;;;;7.49;92.44;101608.94;5031659;28;20036;-67
2021/10/28 01:08:19;;;;;;;13.90;7.07;;;;;;;7.45;91.14;101594.97;5031535;28;20381;-67
2021/10/28 01:10:47;;;;;;;13.38;6.53;;;;;;;7.56;91.06;101600.84;5030196;28;20037;-67
2021/10/28 01:13:17;;;;;;;15.45;6.40;;;;;;;7.48;91.53;101599.44;5031189;28;20034;-67
2021/10/28 01:15:43;;;;;;;;;;;;;;;7.42;90.63;101593.88;5031648;28;20080;-67
2021/10/28 01:18:14;;;;;;;12.10;6.07;;;;;;;7.41;91.81;101608.41;5031551;28;19913;-67
2021/10/28 01:20:42;;;;;;;9.25;5.75;;;;;;;7.45;90.77;101604.34;5031237;28;20036;-67
2021/10/28 01:23:08;;;;;;;10.68;6.53;;;;;;;7.47;90.79;101601.91;5031333;28;20022;-67
2021/10/28 01:25:35;;;;;;;11.70;6.30;;;;;;;7.42;90.54;101612.75;5031250;28;20029;-67
2021/10/28 01:28:02;;;;;;;17.00;6.60;;;;;;;7.44;90.35;101597.47;5029088;28;20099;-66
2021/10/28 01:30:28;;;;;;;9.50;5.80;;;;;;;7.43;90.09;101590.53;5030863;28;20458;-67
2021/10/28 01:32:53;;;;;;;8.82;5.78;;;;;;;7.38;89.43;101582.50;5029893;28;20037;-67
2021/10/28 01:35:19;;;;;;;13.63;7.45;;;;;;;7.42;89.46;101599.03;5031264;28;20459;-67
2021/10/28 01:37:46;;;;;;;11.07;6.63;;;;;;;7.02;89.06;101529.53;5029216;28;20032;-67
2021/10/28 01:40:12;;;;;;;10.32;6.18;;;;;;;6.77;89.16;101507.31;5030989;28;20080;-66
2021/10/28 01:42:57;;;;;;;9.20;5.95;;;;;;;7.11;89.35;101577.25;5025805;28;20029;-67
2021/10/28 01:45:22;;;;;;;15.60;6.40;;;;;;;7.22;89.34;101601.09;5029864;28;20030;-67
2021/10/28 01:47:48;;;;;;;12.60;5.90;;;;;;;7.25;89.51;101601.34;5030988;28;20475;-65
2021/10/28 01:50:14;;;;;;;13.00;6.22;;;;;;;7.25;89.24;101592.72;5030819;28;20033;-67
2021/10/28 01:52:40;;;;;;;11.55;6.47;;;;;;;7.31;88.93;101599.97;5030693;28;20458;-66
2021/10/28 01:55:09;;;;;;;9.80;6.07;;;;;;;7.08;88.68;101587.31;5030659;28;20087;-67
2021/10/28 01:57:35;;;;;;;8.32;5.72;;;;;;;7.03;90.52;101614.38;5030653;28;20049;-67
2021/10/28 02:00:02;;;;;;;9.95;5.95;;;;;;;6.96;91.90;101609.56;5029522;28;20407;-67
2021/10/28 02:02:28;;;;;;;10.10;5.80;;;;;;;6.77;91.80;101584.31;5030439;28;20479;-66
2021/10/28 02:04:54;;;;;;;14.07;8.75;;;;;;;6.66;90.81;101605.75;5030537;28;20099;-66
2021/10/28 02:07:19;;;;;;;18.73;11.65;;;;;;;6.51;89.76;101611.56;5031020;28;20025;-65
2021/10/28 02:09:45;;;;;;;17.75;12.35;;;;;;;6.47;89.63;101615.56;5030532;28;20025;-67
2021/10/28 02:12:10;;;;;;;22.00;12.52;;;;;;;6.41;89.31;101625.41;5030440;28;20030;-67
2021/10/28 02:14:35;;;;;;;19.27;12.52;;;;;;;5.95;89.98;101619.44;5014414;28;20077;-66
2021/10/28 02:17:01;;;;;;;19.58;13.85;;;;;;;4.80;95.72;101631.25;5034196;28;20095;-67
2021/10/28 02:19:27;;;;;;;20.98;14.05;;;;;;;4.77;96.41;101622.44;5034117;28;20036;-67
2021/10/28 02:21:52;;;;;;;23.08;14.00;;;;;;;4.47;95.83;101527.16;5034140;28;20501;-68
2021/10/28 02:24:18;;;;;;;18.20;13.70;;;;;;;5.14;94.83;101620.19;5033907;28;20028;-70
2021/10/28 02:26:44;;;;;;;17.52;12.93;;;;;;;5.10;95.03;101631.84;5034041;28;20091;-68
2021/10/28 02:29:09;;;;;;;17.23;12.70;;;;;;;5.18;94.58;101637.56;5034268;28;20029;-67
2021/10/28 02:31:36;;;;;;;18.30;11.82;;;;;;;5.19;94.30;101634.22;5033910;28;20025;-67
2021/10/28 02:34:02;;;;;;;20.13;12.45;;;;;;;4.86;94.28;101556.66;5033986;28;20079;-68
2021/10/28 02:36:27;;;;;;;17.75;12.68;;;;;;;5.42;94.03;101625.78;5033924;28;20112;-67
2021/10/28 02:38:53;;;;;;;18.25;12.98;;;;;;;5.70;92.94;101635.53;5033652;28;20110;-67
2021/10/28 02:41:18;;;;;;;19.02;12.00;;;;;;;5.80;91.80;101629.44;5033665;28;20408;-68
2021/10/28 02:43:44;;;;;;;17.42;12.75;;;;;;;5.76;90.60;101630.88;5033791;28;20028;-69
2021/10/28 02:46:10;;;;;;;21.42;12.70;;;;;;;5.82;90.43;101633.91;5033466;28;20046;-67
2021/10/28 02:48:35;;;;;;;17.00;11.73;;;;;;;5.82;90.08;101630.47;5033660;28;20115;-67
2021/10/28 02:51:01;;;;;;;15.25;11.85;;;;;;;5.75;90.65;101634.22;5033621;28;20108;-68
2021/10/28 02:53:26;;;;;;;16.95;12.18;;;;;;;5.85;90.95;101635.81;5033534;28;20029;-67
2021/10/28 02:55:52;;;;;;;18.23;13.15;;;;;;;5.82;90.26;101630.47;5033236;28;20053;-68
2021/10/28 02:58:18;;;;;;;21.15;12.43;;;;;;;5.92;91.22;101632.00;5033648;28;20025;-66
2021/10/28 03:00:44;;;;;;;18.27;12.50;;;;;;;6.05;90.68;101634.75;5033765;28;20033;-67
2021/10/28 03:03:09;;;;;;;15.70;11.10;;;;;;;6.09;90.53;101631.66;5033776;28;20029;-67
2021/10/28 03:05:35;;;;;;;15.82;11.85;;;;;;;6.23;90.56;101632.66;5033440;28;20603;-67
2021/10/28 03:08:01;;;;;;;15.63;11.48;;;;;;;6.32;90.45;101633.31;5033247;28;20080;-67
2021/10/28 03:10:26;;;;;;;18.98;10.70;;;;;;;6.28;88.37;101615.94;5033285;28;20087;-67
2021/10/28 03:12:53;;;;;;;18.27;10.88;;;;;;;6.30;89.24;101610.91;5032984;28;20036;-67
2021/10/28 03:15:20;;;;;;;16.63;10.88;;;;;;;6.14;88.64;101640.56;5033352;28;20037;-67
2021/10/28 03:26:12;;;;;;;18.42;12.50;;;;;;;5.78;92.18;101644.72;4967845;28;20050;-68
2021/10/28 03:28:37;;;;;;;15.63;10.95;;;;;;;5.72;91.66;101659.63;4971665;28;20042;-68
2021/10/28 03:31:03;;;;;;;13.45;9.82;;;;;;;5.22;90.51;101574.69;4971540;28;20416;-68
2021/10/28 03:33:28;;;;;;;12.27;9.43;;;;;;;5.55;89.50;101660.88;4971122;28;20460;-67
2021/10/28 03:35:54;;;;;;;12.98;9.10;;;;;;;5.39;89.13;101633.22;4971727;28;20042;-67
2021/10/28 03:38:28;;;;;;;11.82;8.40;;;;;;;5.33;88.99;101642.97;4971631;28;20046;-67
2021/10/28 04:29:55;;;;;;;19.02;9.90;;;;;;;4.67;87.98;101688.22;5021278;28;20478;-68
2021/10/28 04:32:21;;;;;;;12.82;9.52;;;;;;;4.72;88.32;101700.47;5022200;28;20065;-67
2021/10/28 04:34:47;;;;;;;12.05;8.95;;;;;;;4.57;89.14;101693.34;5020255;28;20049;-66
2021/10/28 04:37:12;;;;;;;19.98;14.02;;;;;;;4.58;89.26;101699.38;5022114;28;20056;-67
2021/10/28 04:39:38;;;;;;;16.73;12.23;;;;;;;4.59;89.31;101699.50;5027074;28;20037;-66
2021/10/28 04:42:04;;;;;;;14.00;11.02;;;;;;;4.58;89.72;101707.94;5031314;28;20028;-67
2021/10/28 04:44:29;;;;;;;18.10;10.98;;;;;;;4.59;89.98;101703.72;5031837;28;20401;-69
2021/10/28 04:46:55;;;;;;;13.55;10.85;;;;;;;4.56;89.97;101706.94;5031599;28;20033;-67
2021/10/28 04:49:20;;;;;;;15.30;10.98;;;;;;;4.60;89.69;101698.72;5023569;28;20054;-63
2021/10/28 04:51:46;;;;;;;18.77;11.57;;;;;;;4.59;89.40;101699.50;5030045;28;20412;-64
2021/10/28 04:54:12;;;;;;;21.83;11.23;;;;;;;4.31;89.39;101678.44;5030537;28;20052;-64
2021/10/28 04:56:37;;;;;;;15.57;9.98;;;;;;;4.41;90.71;101705.66;5030304;28;20133;-66
2021/10/28 04:59:03;;;;;;;14.95;11.45;;;;;;;4.49;90.85;101710.63;5030712;28;20029;-66
2021/10/28 05:01:29;;;;;;;11.93;9.27;;;;;;;4.43;90.46;101712.69;5026493;28;20033;-67
2021/10/28 05:03:54;;;;;;;11.70;8.77;;;;;;;4.32;90.48;101688.78;5031316;28;20113;-66
2021/10/28 05:06:20;;;;;;;14.65;10.95;;;;;;;3.99;90.51;101605.16;5027003;28;20436;-67
2021/10/28 05:08:45;;;;;;;21.23;11.00;;;;;;;4.64;90.45;101715.22;5025454;28;20037;-67
2021/10/28 05:11:14;;;;;;;14.52;9.43;;;;;;;4.67;90.44;101718.00;5017994;28;20121;-67
2021/10/28 05:13:40;;;;;;;10.83;7.73;;;;;;;4.73;90.58;101717.63;5018095;28;20065;-67
2021/10/28 05:16:06;;;;;;;37.40;27.15;;;;;;;4.70;91.89;101716.59;5019696;28;20076;-66
2021/10/28 05:18:40;;;;;;;35.58;16.73;;;;;;;4.75;92.22;101724.66;4989785;28;20057;-66
2021/10/28 05:21:07;;;;;;;40.22;30.45;;;;;;;4.80;92.34;101725.03;5009192;28;20124;-67
2021/10/28 05:23:32;;;;;;;21.20;11.40;;;;;;;4.90;91.71;101724.97;5008607;28;20562;-67
2021/10/28 05:25:58;;;;;;;22.13;11.73;;;;;;;4.79;91.29;101700.22;5009097;28;20053;-66
2021/10/28 05:28:23;;;;;;;25.00;13.80;;;;;;;4.74;92.78;101727.09;5008886;28;20068;-67
2021/10/28 05:30:49;;;;;;;16.40;10.20;;;;;;;4.67;92.98;101721.47;5019138;28;20029;-67
2021/10/28 05:33:14;;;;;;;13.50;9.75;;;;;;;4.68;93.08;101728.34;5018072;28;20061;-68
2021/10/28 05:35:40;;;;;;;16.15;11.10;;;;;;;4.66;93.82;101742.72;5018246;28;20025;-67
2021/10/28 05:38:05;;;;;;;15.13;9.80;;;;;;;4.82;93.14;101739.72;5020854;28;20037;-68
2021/10/28 05:40:31;;;;;;;13.15;8.63;;;;;;;4.86;92.65;101748.56;5011286;28;20026;-68
2021/10/28 05:42:56;;;;;;;13.60;8.20;;;;;;;4.76;92.50;101726.44;5011230;28;20061;-67
2021/10/28 05:45:23;;;;;;;16.02;8.52;;;;;;;4.75;92.85;101746.75;5011129;28;20092;-67
2021/10/28 05:47:49;;;;;;;11.85;8.05;;;;;;;4.20;93.33;101658.03;5011011;28;20030;-67
2021/10/28 05:50:17;;;;;;;13.35;10.07;;;;;;;4.77;93.98;101738.47;5031481;28;20037;-66
2021/10/28 05:52:43;;;;;;;13.80;11.05;;;;;;;4.91;93.08;101759.13;5034458;28;20025;-67
2021/10/28 05:55:10;;;;;;;12.10;8.73;;;;;;;4.87;92.17;101747.75;5034672;28;20036;-67
2021/10/28 05:57:36;;;;;;;9.77;8.55;;;;;;;4.99;91.77;101747.84;5034171;28;20084;-67
2021/10/28 06:00:02;;;;;;;17.00;8.45;;;;;;;5.05;91.97;101757.69;5033549;28;20142;-67
2021/10/28 06:02:28;;;;;;;8.95;7.28;;;;;;;4.99;92.71;101756.41;5034351;28;20034;-66
2021/10/28 06:04:53;;;;;;;8.45;7.35;;;;;;;4.66;91.21;101667.63;5034576;28;20029;-67
2021/10/28 06:07:19;;;;;;;9.85;7.72;;;;;;;5.27;91.72;101763.75;5030400;28;20040;-65
2021/10/28 06:09:44;;;;;;;10.80;9.00;;;;;;;4.81;91.54;101693.53;5034834;28;20044;-67
2021/10/28 06:12:10;;;;;;;11.45;8.38;;;;;;;5.34;91.85;101773.69;5034403;28;20033;-67
2021/10/28 06:14:36;;;;;;;11.77;9.00;;;;;;;5.51;90.75;101763.91;5034164;28;20119;-67
2021/10/28 06:17:10;;;;;;;10.32;8.52;;;;;;;5.53;90.66;101774.25;5034306;28;20109;-66
2021/10/28 06:19:36;;;;;;;12.52;9.02;;;;;;;5.53;91.13;101776.81;5034035;28;20034;-66
2021/10/28 06:22:03;;;;;;;13.27;9.55;;;;;;;5.62;91.26;101772.41;5025197;28;20034;-67
2021/10/28 06:24:29;;;;;;;18.85;12.57;;;;;;;5.68;91.42;101780.56;5022651;28;20037;-67
2021/10/28 06:26:54;;;;;;;15.88;11.77;;;;;;;5.77;91.18;101781.28;5024254;28;20026;-67
2021/10/28 06:29:20;;;;;;;14.48;11.27;;;;;;;5.32;91.64;101688.19;5024208;28;20033;-67
2021/10/28 06:31:48;;;;;;;16.27;10.77;;;;;;;6.02;92.00;101772.06;5017366;28;20026;-67
2021/10/28 06:34:19;;;;;;;15.48;11.02;;;;;;;5.74;91.74;101690.47;5027860;28;20032;-67
2021/10/28 06:36:45;;;;;;;17.90;11.20;;;;;;;6.10;91.21;101735.97;5033987;28;20033;-66
2021/10/28 06:39:10;;;;;;;15.85;12.32;;;;;;;5.91;91.83;101687.53;5014126;28;20034;-67
2021/10/28 06:41:36;;;;;;;14.25;10.63;;;;;;;6.61;91.59;101779.91;5020970;28;20030;-67
2021/10/28 06:44:02;;;;;;;17.05;11.10;;;;;;;6.72;91.84;101785.84;5023086;28;20029;-65
2021/10/28 06:46:28;;;;;;;16.77;13.05;;;;;;;6.93;91.38;101791.66;5024637;28;20030;-67
2021/10/28 06:48:55;;;;;;;18.92;13.73;;;;;;;6.22;90.62;101677.03;5022874;28;20052;-67
2021/10/28 06:51:21;;;;;;;18.00;13.98;;;;;;;6.96;91.67;101787.59;5029249;28;20040;-68
2021/10/28 06:54:04;;;;;;;16.50;11.85;;;;;;;7.03;91.47;101786.41;5025110;28;20045;-65
2021/10/28 07:04:40;;;;;;;23.15;16.05;;;;;;;7.56;91.64;101779.84;4971975;28;20038;-67
2021/10/28 07:07:05;;;;;;;21.70;15.90;;;;;;;7.68;91.41;101780.69;4971692;28;20078;-66
2021/10/28 07:12:16;;;;;;;25.63;17.85;;;;;;;8.01;91.34;101775.19;4971575;28;20031;-67
2021/10/28 07:14:45;;;;;;;26.25;18.67;;;;;;;7.70;92.50;101776.56;4971662;28;20043;-66
2021/10/28 07:36:20;;;;;;;25.80;20.15;;;;;;;8.07;94.83;101767.91;4953638;28;20046;-67
2021/10/28 07:58:11;;;;;;;21.13;16.50;;;;;;;9.07;91.54;101763.31;4961480;28;20126;-68
2021/10/28 08:14:23;;;;;;;21.33;16.40;;;;;;;9.18;91.96;101748.53;5022923;28;20045;-66
2021/10/28 08:22:00;;;;;;;22.23;16.80;;;;;;;9.92;90.91;101716.97;5023275;28;20044;-67
2021/10/28 08:29:38;;;;;;;22.45;18.08;;;;;;;10.47;91.64;101737.41;5031937;28;20047;-66
2021/10/28 08:32:06;;;;;;;22.83;18.30;;;;;;;10.59;90.33;101724.34;5031644;28;20021;-68
2021/10/28 08:34:35;;;;;;;21.45;17.77;;;;;;;10.45;90.93;101723.53;4996805;28;20046;-67
2021/10/28 08:37:11;;;;;;;;;;;;;;;10.61;91.52;101727.00;5032154;28;20428;-66
2021/10/28 08:39:48;;;;;;;19.42;14.93;;;;;;;10.64;88.81;101724.56;5028168;28;19905;-67
2021/10/28 08:42:16;;;;;;;20.58;15.52;;;;;;;10.74;89.21;101724.31;5018232;28;20030;-68
2021/10/28 08:44:48;;;;;;;18.50;16.13;;;;;;;11.00;89.09;101719.69;5021124;28;20520;-72
2021/10/28 08:47:15;;;;;;;20.98;16.40;;;;;;;10.84;87.60;101649.09;5021754;28;20040;-68
2021/10/28 08:49:46;;;;;;;18.63;14.95;;;;;;;10.96;86.69;101686.75;5016215;28;20509;-66
2021/10/28 09:24:37;;;;;;;18.33;11.90;;;;;;;13.00;74.47;101684.13;4969129;28;20489;-66
2021/10/28 09:27:09;;;;;;;16.15;12.30;;;;;;;13.26;77.11;101674.94;4969347;28;20603;-66
2021/10/28 09:29:57;;;;;;;18.55;11.63;;;;;;;12.88;73.51;101598.00;4969266;28;20178;-67
2021/10/28 09:32:34;;;;;;;15.25;10.43;;;;;;;13.40;72.26;101682.50;4956434;28;20053;-65
2021/10/28 09:47:05;;;;;;;16.30;10.52;;;;;;;13.88;66.32;101636.13;5034291;28;20036;-66
2021/10/28 09:51:52;;;;;;;11.85;8.35;;;;;;;14.27;62.47;101653.31;5033355;28;20056;-67
2021/10/28 09:58:03;;;;;;;14.98;7.68;;;;;;;14.52;62.89;101657.78;5033158;28;20072;-64
2021/10/28 10:00:39;;;;;;;16.85;7.50;;;;;;;14.55;58.27;101639.72;4990244;28;20035;-64
2021/10/28 10:03:16;;;;;;;25.00;7.50;;;;;;;14.46;59.01;101591.69;4989807;28;20026;-66
2021/10/28 10:05:44;;;;;;;18.55;7.75;;;;;;;14.63;59.23;101634.81;4988926;28;20532;-66
2021/10/28 10:08:13;;;;;;;10.85;6.20;;;;;;;14.83;59.33;101633.03;4990328;28;20583;-65
2021/10/28 10:10:39;;;;;;;;;;;;;;;14.99;58.70;101633.59;4986678;28;20162;-67
2021/10/28 10:13:05;;;;;;;15.82;8.15;;;;;;;15.13;61.20;101623.72;4988399;28;19942;-65
2021/10/28 10:15:31;;;;;;;15.35;6.57;;;;;;;15.20;58.12;101621.41;4990216;28;20030;-64
2021/10/28 10:18:01;;;;;;;22.70;13.63;;;;;;;15.27;59.85;101622.50;4989205;28;20054;-64
2021/10/28 10:20:36;;;;;;;12.43;7.25;;;;;;;15.36;58.63;101617.63;4990313;28;20030;-64
2021/10/28 12:16:31;;;;;;;21.95;15.48;;;;;;;16.62;55.07;101488.81;5012790;28;20025;-70
2021/10/28 12:25:08;;;;;;;21.85;12.57;;;;;;;16.04;56.88;101464.50;5012796;28;20037;-64
2021/10/28 13:52:14;;;;;;;18.45;6.15;;;;;;;16.24;55.53;101445.16;5018843;28;20057;-69
2021/10/28 15:29:00;;;;;;;7.50;5.25;;;;;;;15.26;57.29;101438.59;5022161;28;20048;-69
2021/10/28 15:35:07;;;;;;;50.28;21.80;;;;;;;15.21;58.36;101450.56;4953987;28;20577;-69
2021/10/28 15:59:36;;;;;;;31.75;22.05;;;;;;;14.87;59.98;101457.22;4838740;29;20061;-68
2021/10/28 16:23:54;;;;;;;42.17;22.42;;;;;;;14.31;63.46;101464.69;4912017;29;20047;-66
2021/10/28 16:26:19;;;;;;;41.42;23.20;;;;;;;13.52;63.94;101325.03;4911790;29;20065;-68
2021/10/28 16:28:45;;;;;;;45.80;23.20;;;;;;;14.29;64.75;101476.72;4930690;28;20413;-68
2021/10/28 16:31:14;;;;;;;31.95;19.98;;;;;;;14.02;65.50;101473.13;4954350;28;20522;-68
2021/10/28 16:33:41;;;;;;;36.40;19.17;;;;;;;14.04;66.17;101484.47;4970149;28;20512;-68
2021/10/28 16:36:07;;;;;;;27.75;18.55;;;;;;;13.87;66.91;101486.41;4998732;28;20113;-67
2021/10/28 16:38:33;;;;;;;31.60;17.63;;;;;;;13.77;66.53;101488.56;5011385;28;20018;-67
2021/10/28 16:40:59;;;;;;;31.55;19.42;;;;;;;13.60;66.26;101478.38;5011704;28;20033;-68
2021/10/28 16:43:25;;;;;;;41.97;24.77;;;;;;;13.63;65.94;101491.47;5011532;28;20022;-69
2021/10/28 16:45:51;;;;;;;41.15;26.55;;;;;;;13.43;66.78;101455.25;5011869;28;20518;-67
2021/10/28 16:48:17;;;;;;;48.70;24.50;;;;;;;13.09;66.87;101390.69;5017679;28;20499;-68
2021/10/28 16:50:45;;;;;;;44.92;25.00;;;;;;;13.14;67.13;101411.63;5030526;28;20124;-67
2021/10/28 16:53:11;;;;;;;58.08;32.78;;;;;;;13.57;67.29;101499.00;5028280;28;20037;-67
2021/10/28 16:55:37;;;;;;;44.85;29.85;;;;;;;13.48;67.35;101493.44;5018622;28;20052;-69
2021/10/28 16:58:02;;;;;;;51.47;27.77;;;;;;;13.46;67.41;101497.69;5014029;28;20069;-69
2021/10/28 17:00:28;;;;;;;46.20;26.33;;;;;;;13.37;67.76;101504.28;5018331;28;20038;-69
2021/10/28 17:02:53;;;;;;;48.47;26.58;;;;;;;13.21;68.61;101496.63;5021368;28;20033;-68
2021/10/28 17:05:19;;;;;;;57.10;26.83;;;;;;;13.24;68.95;101502.81;5017285;28;20036;-67
2021/10/28 17:07:45;;;;;;;55.42;29.05;;;;;;;13.31;68.70;101516.03;5003177;28;20065;-68
2021/10/28 17:10:10;;;;;;;45.25;27.67;;;;;;;13.29;68.64;101509.94;5020639;28;20108;-69
2021/10/28 17:12:36;;;;;;;39.50;23.63;;;;;;;13.16;68.17;101496.44;5025327;28;20052;-67
2021/10/28 17:15:04;;;;;;;39.22;20.45;;;;;;;13.01;68.69;101520.00;5022300;28;20018;-67
2021/10/28 17:17:30;;;;;;;31.38;20.35;;;;;;;12.62;70.26;101507.00;5025373;28;20060;-73
2021/10/28 17:20:02;;;;;;;43.70;20.10;;;;;;;12.41;71.22;101522.44;5024236;28;20400;-68
2021/10/28 17:22:27;;;;;;;31.38;17.65;;;;;;;12.24;71.89;101491.50;5019991;28;20103;-69
2021/10/28 17:24:53;;;;;;;32.38;15.85;;;;;;;12.53;71.24;101520.44;5021045;28;20480;-68
2021/10/28 17:27:19;;;;;;;24.80;14.70;;;;;;;12.49;70.54;101513.34;5021942;28;20065;-68
2021/10/28 17:29:45;;;;;;;25.63;13.13;;;;;;;12.44;70.58;101499.31;5017811;28;20503;-68
2021/10/28 17:32:11;;;;;;;21.85;12.30;;;;;;;12.18;70.44;101433.38;5020434;28;20124;-70
2021/10/28 17:34:37;;;;;;;19.40;11.35;;;;;;;12.47;71.08;101522.75;5023301;28;20032;-67
2021/10/28 17:37:04;;;;;;;18.00;10.85;;;;;;;12.31;71.36;101513.38;5013405;28;20026;-65
2021/10/28 17:39:30;;;;;;;16.70;10.65;;;;;;;12.16;71.48;101517.84;5024764;28;20037;-69
2021/10/28 17:41:58;;;;;;;17.83;10.68;;;;;;;12.09;71.17;101486.47;5018530;28;20026;-67
2021/10/28 17:44:34;;;;;;;18.05;10.68;;;;;;;12.21;71.28;101518.94;5023555;28;20038;-68
2021/10/28 17:46:59;;;;;;;18.92;10.10;;;;;;;12.24;70.83;101529.47;5028191;28;20036;-67
2021/10/28 17:49:25;;;;;;;21.30;11.10;;;;;;;12.22;70.91;101515.53;5028257;28;20029;-67
2021/10/28 17:51:50;;;;;;;20.30;11.07;;;;;;;11.94;70.66;101452.97;5029876;28;20032;-68
2021/10/28 17:54:16;;;;;;;21.98;11.63;;;;;;;12.05;71.50;101510.47;5028626;28;20056;-68
2021/10/28 17:56:41;;;;;;;23.05;15.02;;;;;;;12.10;72.13;101529.69;5033766;28;20053;-69
2021/10/28 17:59:08;;;;;;;40.78;18.92;;;;;;;11.80;73.44;101532.53;5033465;28;20396;-71
2021/10/28 18:01:35;;;;;;;38.83;20.38;;;;;;;11.59;74.98;101529.75;5033626;28;20071;-69
2021/10/28 18:04:01;;;;;;;41.60;21.27;;;;;;;11.42;75.68;101530.63;5028854;28;20033;-67
2021/10/28 18:06:28;;;;;;;42.22;21.50;;;;;;;11.14;76.43;101521.44;5029301;28;20492;-66
2021/10/28 18:08:55;;;;;;;43.28;24.92;;;;;;;10.71;78.46;101524.38;5029369;28;20018;-66
2021/10/28 18:11:21;;;;;;;52.65;27.35;;;;;;;10.69;78.48;101532.03;5030215;28;20057;-68
2021/10/28 18:13:49;;;;;;;43.83;23.48;;;;;;;10.55;79.45;101533.88;5033225;28;20033;-68
2021/10/28 18:16:15;;;;;;;41.58;23.52;;;;;;;10.31;79.82;101530.81;5032042;28;20377;-66
2021/10/28 18:18:41;;;;;;;46.35;23.88;;;;;;;10.23;79.96;101516.59;5030661;28;20064;-67
2021/10/28 18:21:07;;;;;;;37.65;21.52;;;;;;;10.29;80.37;101542.75;5033274;28;20137;-68
2021/10/28 18:23:34;;;;;;;31.42;17.33;;;;;;;10.39;79.75;101550.22;5030485;28;20037;-69
2021/10/28 18:26:00;;;;;;;24.25;14.63;;;;;;;10.36;79.70;101550.06;5027598;28;20045;-66
2021/10/28 18:28:27;;;;;;;28.00;16.27;;;;;;;10.13;79.84;101516.09;5032384;28;20025;-68
2021/10/28 18:30:52;;;;;;;31.08;16.55;;;;;;;10.32;79.85;101545.50;5033392;28;20151;-66
2021/10/28 18:33:18;;;;;;;87.43;38.22;;;;;;;10.48;79.17;101566.22;5030450;28;20111;-67
2021/10/28 18:35:43;;;;;;;87.78;39.83;;;;;;;10.55;79.00;101571.72;5032806;28;20021;-69
2021/10/28 18:38:11;;;;;;;84.57;40.58;;;;;;;10.56;78.72;101570.91;5032701;28;20025;-69
2021/10/28 18:40:37;;;;;;;110.05;47.08;;;;;;;10.49;79.18;101577.41;5031848;28;20033;-68
2021/10/28 18:43:04;;;;;;;101.43;50.95;;;;;;;10.31;79.23;101546.31;5032490;28;20409;-66
2021/10/28 18:45:32;;;;;;;66.90;34.80;;;;;;;10.46;79.17;101569.53;5032706;28;20599;-65
2021/10/28 18:47:58;;;;;;;58.40;26.58;;;;;;;10.53;78.91;101579.38;5032686;28;20028;-67
2021/10/28 18:50:23;;;;;;;45.22;17.02;;;;;;;10.35;78.28;101555.97;5032421;28;20470;-67
2021/10/28 18:52:49;;;;;;;39.78;15.65;;;;;;;10.43;78.65;101588.31;5032413;28;20176;-64
2021/10/28 18:55:15;;;;;;;34.85;16.30;;;;;;;10.40;78.74;101582.97;5032592;28;20029;-67
2021/10/28 18:57:42;;;;;;;34.40;16.70;;;;;;;10.45;78.89;101560.00;5032709;28;20057;-70
2021/10/28 19:00:11;;;;;;;39.40;16.75;;;;;;;10.46;78.42;101566.94;5031247;28;20514;-66
2021/10/28 19:02:37;;;;;;;35.08;19.33;;;;;;;10.01;78.88;101507.66;5032568;28;20033;-65
2021/10/28 19:05:07;;;;;;;32.00;16.38;;;;;;;10.20;79.36;101580.16;5032591;28;20033;-68
2021/10/28 19:07:32;;;;;;;27.70;14.02;;;;;;;10.14;80.08;101571.16;5032804;28;20027;-68
2021/10/28 19:09:59;;;;;;;35.33;15.27;;;;;;;9.96;80.69;101574.47;5032221;28;20026;-66
2021/10/28 19:12:45;;;;;;;34.70;15.55;;;;;;;9.70;80.93;101534.28;5027759;28;20049;-68
2021/10/28 19:15:12;;;;;;;28.33;13.43;;;;;;;9.94;81.23;101576.06;5029875;28;20041;-67
2021/10/28 19:17:38;;;;;;;32.92;14.20;;;;;;;9.68;81.98;101585.78;5030019;28;20432;-67
2021/10/28 19:20:06;;;;;;;27.58;12.43;;;;;;;9.68;81.88;101577.13;5029909;28;20519;-65
2021/10/28 19:22:32;;;;;;;24.42;13.52;;;;;;;9.36;83.23;101573.56;5029882;28;20029;-67
2021/10/28 19:25:00;;;;;;;22.45;12.20;;;;;;;9.25;83.29;101570.34;5029846;28;20026;-67
2021/10/28 19:27:26;;;;;;;24.98;12.13;;;;;;;8.81;85.91;101577.16;5028334;28;20101;-70
2021/10/28 19:30:01;;;;;;;19.65;11.43;;;;;;;8.59;86.34;101549.19;5029609;28;20124;-69
2021/10/28 19:32:28;;;;;;;20.40;10.38;;;;;;;8.67;86.40;101562.50;5029509;28;20037;-67
2021/10/28 19:34:54;;;;;;;23.20;10.15;;;;;;;8.18;86.97;101513.97;5010773;28;20104;-67
2021/10/28 19:45:06;;;;;;;28.50;15.30;;;;;;;8.92;85.78;101600.97;5027753;28;20088;-68
2021/10/28 19:46:08;;;;;;;19.20;11.77;;;;;;;9.05;85.14;101603.50;5027666;28;20044;-68
2021/10/28 19:48:14;;;;;;;25.13;12.07;;;;;;;9.18;84.81;101612.91;5022853;28;20052;-69
2021/10/28 19:50:40;;;;;;;17.77;10.38;;;;;;;9.32;84.69;101611.16;5028119;28;20243;-67
2021/10/28 19:53:06;;;;;;;16.52;11.23;;;;;;;9.34;84.16;101631.84;5029848;28;20554;-66
2021/10/28 19:55:32;;;;;;;25.60;13.13;;;;;;;9.37;83.86;101624.28;5027142;28;20045;-67
2021/10/28 19:57:58;;;;;;;38.80;25.60;;;;;;;9.39;83.61;101621.03;5028669;28;20057;-67
2021/10/28 20:21:27;;;;;;;56.13;34.40;;;;;;;8.56;86.44;101636.47;4988082;28;20443;-66
2021/10/28 20:23:53;;;;;;;22.10;15.05;;;;;;;8.54;86.34;101645.81;4998366;28;20444;-66
2021/10/28 20:26:20;;;;;;;18.30;13.48;;;;;;;8.45;86.64;101643.50;4998495;28;20100;-67
2021/10/28 20:28:48;;;;;;;19.30;12.73;;;;;;;8.33;87.20;101635.88;5000022;28;20038;-64
2021/10/28 20:31:18;;;;;;;17.33;12.38;;;;;;;8.14;87.95;101620.91;4998520;28;20038;-66
2021/10/28 20:33:48;;;;;;;;;;;;;;;8.14;88.28;101640.59;4999971;28;20092;-66
2021/10/28 20:39:05;;;;;;;16.73;12.15;;;;;;;8.03;88.45;101637.34;4999245;28;20472;-63
2021/10/28 20:41:32;;;;;;;17.75;11.93;;;;;;;8.13;88.25;101637.13;4997854;28;20030;-66
2021/10/28 20:43:58;;;;;;;19.35;13.23;;;;;;;8.13;88.28;101637.13;5004974;28;20029;-67
2021/10/28 20:46:27;;;;;;;18.02;12.27;;;;;;;7.85;88.84;101635.31;5021236;28;20046;-67